createdAt,value
2022-12-18T00:01:21.807Z,-3.94
2022-12-18T00:03:48.756Z,-4.58
2022-12-18T00:06:16.237Z,-4.05
2022-12-18T00:08:43.888Z,-4.03
2022-12-18T00:11:17.140Z,-3.79
2022-12-18T00:13:43.734Z,-3.81
2022-12-18T00:16:13.724Z,-3.60
2022-12-18T00:18:41.158Z,-3.63
2022-12-18T00:21:11.139Z,-3.62
2022-12-18T00:23:38.451Z,-3.40
2022-12-18T00:26:08.755Z,-3.64
2022-12-18T00:28:35.228Z,-3.60
2022-12-18T00:31:07.912Z,-3.51
2022-12-18T00:33:35.269Z,-3.40
2022-12-18T00:36:07.347Z,-3.33
2022-12-18T00:38:34.627Z,-3.48
2022-12-18T00:41:01.222Z,-3.40
2022-12-18T00:43:27.997Z,-3.97
2022-12-18T00:45:54.913Z,-3.34
2022-12-18T00:48:21.906Z,-3.66
2022-12-18T00:50:49.496Z,-3.55
2022-12-18T00:53:16.254Z,-4.10
2022-12-18T00:55:43.680Z,-3.86
2022-12-18T00:58:11.849Z,-3.88
2022-12-18T01:00:39.065Z,-4.65
2022-12-18T01:03:06.769Z,-4.20
2022-12-18T01:05:33.819Z,-3.88
2022-12-18T01:08:00.451Z,-3.73
2022-12-18T01:10:27.061Z,-3.89
2022-12-18T01:12:53.510Z,-3.72
2022-12-18T01:15:21.448Z,-3.67
2022-12-18T01:17:47.943Z,-3.89
2022-12-18T01:20:14.612Z,-4.27
2022-12-18T01:22:41.093Z,-3.68
2022-12-18T01:25:08.753Z,-3.68
2022-12-18T01:27:35.449Z,-3.85
2022-12-18T01:30:02.075Z,-3.68
2022-12-18T01:32:31.652Z,-3.58
2022-12-18T01:34:58.233Z,-3.70
2022-12-18T01:37:24.713Z,-4.14
2022-12-18T01:39:53.284Z,-4.29
2022-12-18T01:42:19.805Z,-3.93
2022-12-18T01:44:58.410Z,-3.91
2022-12-18T01:47:27.112Z,-4.05
2022-12-18T01:49:54.298Z,-4.17
2022-12-18T01:52:21.277Z,-4.89
2022-12-18T01:54:48.906Z,-4.38
2022-12-18T01:57:16.045Z,-4.06
2022-12-18T01:59:44.277Z,-4.29
2022-12-18T02:02:11.268Z,-4.02
2022-12-18T02:04:37.882Z,-3.74
2022-12-18T02:07:12.169Z,-3.67
2022-12-18T02:09:49.776Z,-3.63
2022-12-18T02:12:21.342Z,-3.77
2022-12-18T02:14:59.652Z,-3.75
2022-12-18T02:17:40.373Z,-3.57
2022-12-18T02:20:31.403Z,-3.99
2022-12-18T02:23:33.465Z,-3.82
2022-12-18T02:26:09.103Z,-4.10
2022-12-18T02:28:49.797Z,-3.72
2022-12-18T02:31:20.810Z,-4.07
2022-12-18T02:33:48.235Z,-3.85
2022-12-18T02:36:16.667Z,-3.68
2022-12-18T02:38:44.393Z,-3.58
2022-12-18T02:41:11.420Z,-3.68
2022-12-18T02:43:38.388Z,-4.13
2022-12-18T02:46:30.255Z,-3.70
2022-12-18T02:49:05.155Z,-3.63
2022-12-18T02:51:59.154Z,-3.52
2022-12-18T02:54:32.019Z,-3.89
2022-12-18T02:57:02.283Z,-3.78
2022-12-18T02:59:46.499Z,-3.74
2022-12-18T03:02:21.756Z,-3.79
2022-12-18T03:05:31.695Z,-4.28
2022-12-18T03:08:02.505Z,-4.01
2022-12-18T03:10:31.182Z,-4.07
2022-12-18T03:13:04.870Z,-4.48
2022-12-18T03:15:47.265Z,-4.55
2022-12-18T03:18:23.757Z,-4.02
2022-12-18T03:21:31.029Z,-3.98
2022-12-18T03:23:57.910Z,-3.81
2022-12-18T03:26:26.360Z,-3.75
2022-12-18T03:28:59.557Z,-3.75
2022-12-18T03:31:27.336Z,-4.01
2022-12-18T03:33:56.222Z,-3.69
2022-12-18T03:36:23.511Z,-3.81
2022-12-18T03:38:50.768Z,-3.90
2022-12-18T03:41:27.630Z,-4.37
2022-12-18T03:44:05.485Z,-4.49
2022-12-18T03:47:36.190Z,-4.64
2022-12-18T03:50:12.675Z,-4.35
2022-12-18T03:52:47.559Z,-4.02
2022-12-18T03:55:14.122Z,-4.15
2022-12-18T03:57:42.393Z,-4.36
2022-12-18T04:00:14.197Z,-4.23
2022-12-18T04:02:46.181Z,-4.14
2022-12-18T04:05:13.442Z,-4.00
2022-12-18T04:07:40.937Z,-3.98
2022-12-18T04:10:08.803Z,-4.50
2022-12-18T04:12:35.293Z,-4.29
2022-12-18T04:15:01.873Z,-5.10
2022-12-18T04:17:28.464Z,-4.61
2022-12-18T04:19:54.934Z,-4.37
2022-12-18T04:22:21.854Z,-3.93
2022-12-18T04:24:48.313Z,-4.31
2022-12-18T04:27:15.027Z,-3.92
2022-12-18T04:29:41.859Z,-3.66
2022-12-18T04:32:08.909Z,-3.70
2022-12-18T04:34:35.669Z,-3.82
2022-12-18T04:37:02.163Z,-3.93
2022-12-18T04:39:28.821Z,-4.18
2022-12-18T04:41:55.579Z,-4.01
2022-12-18T04:44:22.533Z,-4.23
2022-12-18T04:46:49.111Z,-3.78
2022-12-18T04:49:15.600Z,-3.86
2022-12-18T04:51:42.154Z,-4.04
2022-12-18T04:54:08.824Z,-3.91
2022-12-18T04:56:35.277Z,-4.56
2022-12-18T04:59:01.755Z,-4.41
2022-12-18T05:01:34.258Z,-4.58
2022-12-18T05:04:01.947Z,-4.29
2022-12-18T05:06:28.864Z,-4.40
2022-12-18T05:08:55.322Z,-4.28
2022-12-18T05:11:22.014Z,-3.91
2022-12-18T05:13:48.660Z,-3.78
2022-12-18T05:16:15.801Z,-3.57
2022-12-18T05:18:42.620Z,-3.49
2022-12-18T05:21:09.507Z,-3.35
2022-12-18T05:23:36.192Z,-3.59
2022-12-18T05:26:04.726Z,-3.73
2022-12-18T05:28:33.322Z,-3.59
2022-12-18T05:31:01.711Z,-3.43
2022-12-18T05:33:31.826Z,-3.49
2022-12-18T05:36:00.826Z,-3.21
2022-12-18T05:38:28.609Z,-3.56
2022-12-18T05:40:55.287Z,-3.33
2022-12-18T05:43:23.265Z,-3.15
2022-12-18T05:45:50.523Z,-3.15
2022-12-18T05:48:17.550Z,-3.24
2022-12-18T05:50:46.499Z,-3.15
2022-12-18T05:53:14.362Z,-3.17
2022-12-18T05:55:41.822Z,-3.31
2022-12-18T05:58:09.808Z,-3.46
2022-12-18T06:00:41.983Z,-3.17
2022-12-18T06:03:09.889Z,-3.35
2022-12-18T06:05:38.395Z,-3.15
2022-12-18T06:08:05.378Z,-3.34
2022-12-18T06:10:32.320Z,-3.28
2022-12-18T06:12:58.909Z,-3.16
2022-12-18T06:15:25.497Z,-3.06
2022-12-18T06:17:52.097Z,-3.00
2022-12-18T06:20:18.696Z,-3.20
2022-12-18T06:22:45.633Z,-3.06
2022-12-18T06:25:12.191Z,-3.27
2022-12-18T06:27:38.939Z,-3.94
2022-12-18T06:30:06.032Z,-3.39
2022-12-18T06:32:32.551Z,-3.06
2022-12-18T06:34:59.057Z,-3.18
2022-12-18T06:37:27.034Z,-3.06
2022-12-18T06:40:30.718Z,-3.18
2022-12-18T06:42:57.261Z,-3.29
2022-12-18T06:45:23.845Z,-3.35
2022-12-18T06:47:50.572Z,-2.99
2022-12-18T06:50:17.764Z,-2.91
2022-12-18T06:52:44.940Z,-3.03
2022-12-18T06:55:12.182Z,-2.91
2022-12-18T06:57:38.978Z,-2.85
2022-12-18T07:00:07.300Z,-3.18
2022-12-18T07:02:34.223Z,-2.87
2022-12-18T07:05:04.770Z,-2.71
2022-12-18T07:07:35.500Z,-3.02
2022-12-18T07:10:02.059Z,-2.75
2022-12-18T07:12:28.927Z,-2.86
2022-12-18T07:14:55.429Z,-2.72
2022-12-18T07:17:22.259Z,-2.81
2022-12-18T07:19:48.778Z,-3.15
2022-12-18T07:22:15.272Z,-2.75
2022-12-18T07:24:41.894Z,-2.89
2022-12-18T07:27:08.483Z,-2.89
2022-12-18T07:29:35.932Z,-2.65
2022-12-18T07:32:02.590Z,-2.82
2022-12-18T07:34:29.148Z,-2.63
2022-12-18T07:37:33.322Z,-2.96
2022-12-18T07:39:59.849Z,-2.94
2022-12-18T07:42:32.449Z,-2.96
2022-12-18T07:44:59.988Z,-2.54
2022-12-18T07:47:26.816Z,-2.45
2022-12-18T07:49:53.884Z,-2.36
2022-12-18T07:52:25.726Z,-2.26
2022-12-18T07:54:52.546Z,-2.20
2022-12-18T07:57:41.688Z,-2.54
2022-12-18T08:00:06.271Z,-2.15
2022-12-18T08:02:32.983Z,-2.12
2022-12-18T08:04:59.722Z,-2.03
2022-12-18T08:07:26.295Z,-2.35
2022-12-18T08:09:52.880Z,-1.90
2022-12-18T08:12:19.662Z,-1.89
2022-12-18T08:14:46.150Z,-1.50
2022-12-18T08:17:12.719Z,-1.59
2022-12-18T08:19:39.261Z,-1.38
2022-12-18T08:22:43.428Z,-1.16
2022-12-18T08:25:10.128Z,-1.27
2022-12-18T08:27:37.034Z,-1.30
2022-12-18T08:30:04.988Z,-0.93
2022-12-18T08:32:34.125Z,-1.22
2022-12-18T08:35:00.961Z,-0.98
2022-12-18T08:37:27.506Z,-0.61
2022-12-18T08:39:54.020Z,-0.35
2022-12-18T08:43:30.373Z,-0.24
2022-12-18T08:45:57.796Z,-0.35
2022-12-18T08:48:24.362Z,-0.35
2022-12-18T08:51:00.813Z,-0.38
2022-12-18T08:53:32.702Z,0.03
2022-12-18T08:56:02.312Z,0.49
2022-12-18T08:58:28.822Z,0.75
2022-12-18T09:00:55.362Z,0.87
2022-12-18T09:03:23.473Z,0.84
2022-12-18T09:05:50.150Z,1.29
2022-12-18T09:08:16.713Z,1.39
2022-12-18T09:10:47.635Z,1.56
2022-12-18T09:13:16.285Z,1.78
2022-12-18T09:15:49.288Z,2.56
2022-12-18T09:18:17.673Z,3.66
2022-12-18T09:21:22.106Z,5.97
2022-12-18T09:23:52.659Z,8.84
2022-12-18T09:26:19.374Z,11.48
2022-12-18T09:28:45.914Z,13.45
2022-12-18T09:31:15.477Z,14.91
2022-12-18T09:33:42.550Z,15.00
2022-12-18T09:36:11.032Z,15.14
2022-12-18T09:38:37.951Z,14.79
2022-12-18T09:41:27.097Z,13.73
2022-12-18T09:44:00.183Z,13.75
2022-12-18T09:46:32.075Z,13.68
2022-12-18T09:49:40.628Z,13.72
2022-12-18T09:52:22.298Z,15.09
2022-12-18T09:55:04.216Z,16.86
2022-12-18T09:58:37.317Z,17.87
2022-12-18T10:01:12.043Z,18.69
2022-12-18T10:03:38.743Z,18.80
2022-12-18T10:06:25.160Z,18.46
2022-12-18T10:09:37.958Z,17.64
2022-12-18T10:12:17.903Z,17.81
2022-12-18T10:15:00.548Z,17.63
2022-12-18T10:17:57.424Z,17.74
2022-12-18T10:20:39.131Z,18.56
2022-12-18T10:23:24.361Z,18.48
2022-12-18T10:26:01.988Z,16.86
2022-12-18T10:28:30.969Z,17.17
2022-12-18T10:30:57.716Z,17.11
2022-12-18T10:33:25.992Z,16.48
2022-12-18T10:35:52.828Z,16.45
2022-12-18T10:38:20.104Z,16.59
2022-12-18T10:40:51.896Z,15.78
2022-12-18T10:43:27.894Z,14.54
2022-12-18T10:46:01.306Z,13.84
2022-12-18T10:48:28.486Z,12.96
2022-12-18T10:51:12.965Z,12.20
2022-12-18T10:53:41.540Z,11.65
2022-12-18T10:56:08.020Z,10.89
2022-12-18T10:58:39.455Z,10.69
2022-12-18T11:01:14.937Z,9.97
2022-12-18T11:04:02.401Z,9.71
2022-12-18T11:06:30.384Z,9.56
2022-12-18T11:09:23.233Z,9.25
2022-12-18T11:11:53.249Z,9.77
2022-12-18T11:14:25.364Z,9.94
2022-12-18T11:19:40.757Z,9.82
2022-12-18T11:22:29.643Z,10.26
2022-12-18T11:25:32.138Z,11.30
2022-12-18T11:28:03.675Z,11.94
2022-12-18T11:30:39.165Z,12.11
2022-12-18T11:33:22.828Z,11.52
2022-12-18T11:36:04.563Z,10.92
2022-12-18T11:38:34.969Z,10.70
2022-12-18T11:41:05.321Z,9.68
2022-12-18T11:43:39.939Z,9.10
2022-12-18T11:46:20.410Z,8.40
2022-12-18T11:49:08.926Z,8.18
2022-12-18T11:51:54.634Z,8.28
2022-12-18T11:54:21.151Z,8.21
2022-12-18T11:57:09.719Z,7.76
2022-12-18T11:59:54.447Z,7.82
2022-12-18T12:02:42.151Z,7.34
2022-12-18T12:05:23.774Z,7.05
2022-12-18T12:07:56.322Z,6.45
2022-12-18T12:10:41.601Z,6.51
2022-12-18T12:13:50.198Z,6.31
2022-12-18T12:16:18.910Z,5.74
2022-12-18T12:18:57.524Z,5.92
2022-12-18T12:21:45.129Z,5.81
2022-12-18T12:24:35.534Z,5.86
2022-12-18T12:27:57.446Z,6.02
2022-12-18T12:30:31.951Z,5.96
2022-12-18T12:33:07.996Z,5.80
2022-12-18T12:35:47.780Z,5.43
2022-12-18T12:38:22.821Z,5.50
2022-12-18T12:41:00.566Z,5.72
2022-12-18T12:43:49.393Z,5.68
2022-12-18T12:46:19.080Z,4.91
2022-12-18T12:48:51.451Z,4.39
2022-12-18T12:51:35.449Z,4.54
2022-12-18T12:54:04.695Z,4.60
2022-12-18T12:56:43.517Z,4.74
2022-12-18T12:59:36.378Z,4.95
2022-12-18T13:02:18.940Z,4.93
2022-12-18T13:04:53.988Z,4.99
2022-12-18T13:07:24.163Z,4.40
2022-12-18T13:10:23.773Z,4.16
2022-12-18T13:13:50.210Z,4.28
2022-12-18T13:16:20.737Z,4.05
2022-12-18T13:18:52.615Z,4.16
2022-12-18T13:21:57.483Z,4.36
2022-12-18T13:24:30.603Z,4.38
2022-12-18T13:26:57.203Z,4.01
2022-12-18T13:29:45.181Z,3.95
2022-12-18T13:32:26.210Z,3.95
2022-12-18T13:35:23.060Z,3.74
2022-12-18T13:37:55.272Z,3.64
2022-12-18T13:40:40.215Z,4.16
2022-12-18T13:43:39.454Z,4.28
2022-12-18T13:46:19.137Z,4.41
2022-12-18T13:48:55.419Z,4.00
2022-12-18T13:51:23.279Z,3.86
2022-12-18T13:54:01.407Z,3.35
2022-12-18T13:56:31.914Z,3.49
2022-12-18T13:59:09.780Z,3.08
2022-12-18T14:01:36.594Z,3.61
2022-12-18T14:04:25.224Z,3.82
2022-12-18T14:07:10.929Z,3.88
2022-12-18T14:12:57.346Z,3.87
2022-12-18T14:15:30.190Z,3.82
2022-12-18T14:18:10.730Z,3.29
2022-12-18T14:20:40.852Z,3.30
2022-12-18T14:23:32.472Z,3.24
2022-12-18T14:26:05.343Z,3.07
2022-12-18T14:28:32.794Z,2.82
2022-12-18T14:30:59.480Z,2.69
2022-12-18T14:33:29.013Z,2.84
2022-12-18T14:36:01.703Z,2.38
2022-12-18T14:38:35.236Z,2.42
2022-12-18T14:41:07.528Z,2.54
2022-12-18T14:43:36.062Z,2.90
2022-12-18T14:46:04.386Z,2.60
2022-12-18T14:48:43.555Z,2.96
2022-12-18T14:51:20.075Z,3.10
2022-12-18T14:53:57.388Z,2.95
2022-12-18T14:56:32.134Z,3.35
2022-12-18T14:58:59.637Z,3.20
2022-12-18T15:01:48.121Z,3.26
2022-12-18T15:04:37.389Z,3.46
2022-12-18T15:07:12.894Z,2.62
2022-12-18T15:09:41.048Z,2.53
2022-12-18T15:12:23.841Z,2.97
2022-12-18T15:14:50.344Z,2.96
2022-12-18T15:17:23.279Z,3.11
2022-12-18T15:19:53.576Z,3.20
2022-12-18T15:22:32.221Z,3.53
2022-12-18T15:24:59.471Z,3.41
2022-12-18T15:28:04.423Z,3.11
2022-12-18T15:30:32.407Z,3.33
2022-12-18T15:33:25.714Z,2.67
2022-12-18T15:36:04.261Z,2.60
2022-12-18T15:38:32.016Z,2.87
2022-12-18T15:40:58.725Z,3.36
2022-12-18T15:43:34.913Z,3.24
2022-12-18T15:46:02.945Z,3.31
2022-12-18T15:48:29.704Z,3.16
2022-12-18T15:50:58.229Z,3.26
2022-12-18T15:53:26.671Z,3.45
2022-12-18T15:56:11.672Z,2.94
2022-12-18T15:58:38.908Z,2.97
2022-12-18T16:01:05.669Z,2.85
2022-12-18T16:03:32.476Z,2.74
2022-12-18T16:06:01.244Z,3.04
2022-12-18T16:08:31.702Z,3.31
2022-12-18T16:10:59.061Z,3.59
2022-12-18T16:13:25.575Z,2.99
2022-12-18T16:15:52.197Z,3.51
2022-12-18T16:18:18.753Z,3.25
2022-12-18T16:20:45.356Z,3.44
2022-12-18T16:23:11.905Z,3.26
2022-12-18T16:25:38.384Z,3.36
2022-12-18T16:28:05.425Z,3.04
2022-12-18T16:30:35.756Z,3.49
2022-12-18T16:33:05.668Z,3.50
2022-12-18T16:35:34.388Z,3.61
2022-12-18T16:38:00.877Z,3.38
2022-12-18T16:40:27.568Z,2.07
2022-12-18T16:42:54.095Z,2.90
2022-12-18T16:45:20.979Z,3.21
2022-12-18T16:47:47.554Z,3.59
2022-12-18T16:50:14.851Z,3.28
2022-12-18T16:52:41.730Z,2.85
2022-12-18T16:55:08.909Z,3.63
2022-12-18T16:57:35.556Z,3.40
2022-12-18T17:00:05.438Z,3.21
2022-12-18T17:02:32.944Z,3.35
2022-12-18T17:05:37.687Z,3.64
2022-12-18T17:08:04.470Z,3.87
2022-12-18T17:10:31.245Z,4.03
2022-12-18T17:12:57.866Z,3.16
2022-12-18T17:15:24.430Z,3.59
2022-12-18T17:17:51.008Z,3.20
2022-12-18T17:20:17.531Z,3.49
2022-12-18T17:22:46.381Z,3.27
2022-12-18T17:25:13.130Z,2.74
2022-12-18T17:28:17.315Z,3.24
2022-12-18T17:30:43.923Z,3.04
2022-12-18T17:33:10.616Z,3.02
2022-12-18T17:35:37.216Z,2.70
2022-12-18T17:38:03.990Z,2.76
2022-12-18T17:40:33.334Z,2.95
2022-12-18T17:43:00.003Z,3.17
2022-12-18T17:45:26.560Z,3.01
2022-12-18T17:47:59.629Z,3.41
2022-12-18T17:50:26.505Z,2.95
2022-12-18T17:53:31.147Z,3.46
2022-12-18T17:56:00.986Z,3.22
2022-12-18T17:58:28.814Z,2.91
2022-12-18T18:00:55.466Z,3.62
2022-12-18T18:03:22.097Z,3.63
2022-12-18T18:05:49.227Z,3.24
2022-12-18T18:08:15.760Z,3.12
2022-12-18T18:10:42.627Z,3.55
2022-12-18T18:13:42.069Z,3.69
2022-12-18T18:16:12.997Z,4.08
2022-12-18T18:18:40.000Z,4.13
2022-12-18T18:21:08.275Z,4.30
2022-12-18T18:23:35.622Z,4.57
2022-12-18T18:26:06.946Z,4.09
2022-12-18T18:28:34.342Z,4.43
2022-12-18T18:31:09.189Z,4.56
2022-12-18T18:33:35.815Z,4.55
2022-12-18T18:36:02.317Z,4.62
2022-12-18T18:38:29.193Z,4.55
2022-12-18T18:41:03.871Z,4.58
2022-12-18T18:43:31.129Z,4.11
2022-12-18T18:45:59.282Z,4.65
2022-12-18T18:48:26.754Z,4.48
2022-12-18T18:50:57.717Z,4.87
2022-12-18T18:53:24.293Z,5.07
2022-12-18T18:56:16.584Z,4.80
2022-12-18T18:59:14.799Z,3.50
2022-12-18T19:01:41.462Z,4.29
2022-12-18T19:04:08.315Z,4.97
2022-12-18T19:06:34.841Z,4.46
2022-12-18T19:09:04.810Z,4.51
2022-12-18T19:11:49.946Z,4.31
2022-12-18T19:14:17.074Z,3.71
2022-12-18T19:16:45.457Z,4.04
2022-12-18T19:19:13.072Z,4.52
2022-12-18T19:21:40.235Z,4.44
2022-12-18T19:24:07.067Z,4.35
2022-12-18T19:26:33.546Z,4.70
2022-12-18T19:29:08.145Z,4.92
2022-12-18T19:31:36.677Z,4.32
2022-12-18T19:34:06.775Z,4.17
2022-12-18T19:36:35.288Z,3.93
2022-12-18T19:39:02.314Z,3.98
2022-12-18T19:41:31.305Z,4.01
2022-12-18T19:43:59.781Z,4.18
2022-12-18T19:46:26.439Z,3.69
2022-12-18T19:48:53.643Z,3.98
2022-12-18T19:51:25.991Z,4.51
2022-12-18T19:53:58.126Z,4.81
2022-12-18T19:56:27.179Z,3.72
2022-12-18T19:58:54.600Z,3.93
2022-12-18T20:01:23.449Z,3.60
2022-12-18T20:03:52.392Z,4.01
2022-12-18T20:06:26.093Z,3.69
2022-12-18T20:09:29.889Z,4.35
2022-12-18T20:11:56.367Z,3.65
2022-12-18T20:14:23.893Z,4.03
2022-12-18T20:17:28.555Z,3.44
2022-12-18T20:19:56.213Z,3.96
2022-12-18T20:22:23.885Z,3.74
2022-12-18T20:24:50.664Z,4.19
2022-12-18T20:27:19.585Z,3.76
2022-12-18T20:29:46.228Z,3.94
2022-12-18T20:32:13.147Z,3.87
2022-12-18T20:34:39.685Z,3.36
2022-12-18T20:37:06.230Z,3.23
2022-12-18T20:39:34.056Z,3.61
2022-12-18T20:42:01.315Z,3.92
2022-12-18T20:44:27.764Z,3.57
2022-12-18T20:46:56.896Z,4.54
2022-12-18T20:49:24.701Z,3.99
2022-12-18T20:51:52.849Z,3.77
2022-12-18T20:54:19.837Z,3.98
2022-12-18T20:56:46.609Z,4.32
2022-12-18T20:59:13.094Z,4.54
2022-12-18T21:01:40.840Z,4.01
2022-12-18T21:04:15.281Z,4.67
2022-12-18T21:06:49.415Z,4.76
2022-12-18T21:09:18.170Z,4.61
2022-12-18T21:12:03.312Z,4.35
2022-12-18T21:14:33.324Z,4.18
2022-12-18T21:17:01.837Z,4.79
2022-12-18T21:19:29.103Z,5.03
2022-12-18T21:22:32.797Z,5.27
2022-12-18T21:24:59.296Z,5.20
2022-12-18T21:28:03.164Z,5.54
2022-12-18T21:30:29.637Z,5.48
2022-12-18T21:32:56.211Z,5.44
2022-12-18T21:35:22.702Z,5.51
2022-12-18T21:37:50.998Z,5.09
2022-12-18T21:40:17.490Z,5.15
2022-12-18T21:43:02.875Z,4.13
2022-12-18T21:45:29.416Z,3.61
2022-12-18T21:47:55.863Z,3.41
2022-12-18T21:50:22.352Z,3.44
2022-12-18T21:52:48.813Z,4.04
2022-12-18T21:55:15.474Z,4.46
2022-12-18T21:57:42.031Z,4.10
2022-12-18T22:00:18.871Z,4.12
2022-12-18T22:02:46.247Z,3.66
2022-12-18T22:05:12.948Z,3.73
2022-12-18T22:07:39.815Z,3.88
2022-12-18T22:10:06.854Z,3.46
2022-12-18T22:12:43.574Z,3.26
2022-12-18T22:15:12.040Z,3.83
2022-12-18T22:17:41.272Z,3.39
2022-12-18T22:20:09.389Z,3.29
2022-12-18T22:22:36.064Z,3.32
2022-12-18T22:25:02.703Z,3.21
2022-12-18T22:27:29.180Z,2.47
2022-12-18T22:30:04.755Z,3.47
2022-12-18T22:32:32.987Z,3.23
2022-12-18T22:35:05.790Z,3.33
2022-12-18T22:37:34.718Z,3.40
2022-12-18T22:40:03.452Z,3.15
2022-12-18T22:42:31.016Z,3.16
2022-12-18T22:44:57.479Z,3.12
2022-12-18T22:47:28.001Z,3.20
2022-12-18T22:49:56.145Z,3.44
2022-12-18T22:52:23.395Z,3.34
2022-12-18T22:54:51.536Z,3.15
2022-12-18T22:57:21.690Z,3.33
2022-12-18T22:59:49.125Z,3.50
2022-12-18T23:02:15.716Z,3.52
2022-12-18T23:04:42.292Z,3.32
2022-12-18T23:07:09.013Z,2.96
2022-12-18T23:09:37.761Z,2.89
2022-12-18T23:12:04.850Z,3.05
2022-12-18T23:14:31.794Z,3.03
2022-12-18T23:16:58.505Z,3.15
2022-12-18T23:19:26.141Z,3.22
2022-12-18T23:21:52.605Z,3.28
2022-12-18T23:24:21.286Z,3.16
2022-12-18T23:26:47.818Z,2.94
2022-12-18T23:29:14.505Z,3.21
2022-12-18T23:31:41.102Z,3.28
2022-12-18T23:34:08.101Z,2.99
2022-12-18T23:36:45.960Z,2.88
2022-12-18T23:39:28.706Z,3.06
2022-12-18T23:41:58.285Z,3.25
2022-12-18T23:44:25.437Z,3.04
2022-12-18T23:46:51.973Z,2.61
2022-12-18T23:49:18.548Z,2.82
2022-12-18T23:51:45.039Z,2.66
2022-12-18T23:54:11.480Z,3.38
2022-12-18T23:56:37.949Z,2.96
2022-12-18T23:59:04.621Z,3.33
